createdAt,value
2022-11-17T00:01:36.363Z,11.43
2022-11-17T00:04:04.905Z,11.36
2022-11-17T00:06:33.257Z,11.21
2022-11-17T00:09:03.064Z,11.57
2022-11-17T00:11:51.449Z,11.21
2022-11-17T00:14:34.043Z,11.68
2022-11-17T00:17:03.423Z,11.42
2022-11-17T00:19:49.493Z,11.28
2022-11-17T00:22:17.927Z,11.40
2022-11-17T00:24:48.862Z,11.32
2022-11-17T00:27:17.753Z,12.15
2022-11-17T00:29:46.104Z,12.00
2022-11-17T00:32:44.678Z,12.08
2022-11-17T00:35:13.286Z,11.98
2022-11-17T00:38:04.207Z,12.24
2022-11-17T00:40:34.193Z,12.21
2022-11-17T00:43:02.764Z,11.94
2022-11-17T00:45:31.525Z,11.70
2022-11-17T00:48:00.110Z,11.49
2022-11-17T00:50:28.444Z,11.77
2022-11-17T00:52:56.809Z,11.17
2022-11-17T00:55:25.303Z,10.63
2022-11-17T00:57:55.042Z,11.28
2022-11-17T01:00:23.545Z,11.18
2022-11-17T01:02:51.906Z,11.52
2022-11-17T01:05:20.296Z,11.19
2022-11-17T01:07:48.627Z,11.26
2022-11-17T01:10:17.152Z,11.41
2022-11-17T01:12:45.509Z,11.36
2022-11-17T01:15:15.237Z,11.33
2022-11-17T01:17:43.582Z,10.85
2022-11-17T01:20:12.603Z,10.78
2022-11-17T01:22:40.943Z,11.25
2022-11-17T01:25:10.269Z,11.05
2022-11-17T01:27:38.673Z,11.18
2022-11-17T01:30:08.683Z,10.87
2022-11-17T01:32:38.409Z,11.12
2022-11-17T01:35:08.134Z,10.96
2022-11-17T01:37:36.476Z,11.10
2022-11-17T01:40:06.398Z,11.03
2022-11-17T01:42:34.755Z,11.43
2022-11-17T01:45:05.540Z,11.21
2022-11-17T01:47:43.866Z,11.08
2022-11-17T01:50:30.829Z,11.44
2022-11-17T01:53:02.265Z,11.19
2022-11-17T01:55:37.317Z,11.01
2022-11-17T01:58:13.128Z,11.07
2022-11-17T02:00:42.113Z,11.02
2022-11-17T02:03:12.232Z,11.05
2022-11-17T02:05:49.568Z,11.01
2022-11-17T02:08:19.720Z,10.98
2022-11-17T02:10:51.858Z,11.15
2022-11-17T02:13:21.938Z,10.81
2022-11-17T02:15:50.584Z,11.24
2022-11-17T02:18:20.977Z,10.84
2022-11-17T02:21:10.599Z,10.82
2022-11-17T02:24:13.863Z,10.71
2022-11-17T02:27:32.037Z,10.87
2022-11-17T02:34:20.009Z,10.90
2022-11-17T02:36:58.207Z,11.06
2022-11-17T02:39:33.096Z,10.71
2022-11-17T02:42:10.648Z,10.72
2022-11-17T02:44:47.667Z,11.07
2022-11-17T02:47:21.456Z,10.57
2022-11-17T02:49:56.459Z,10.46
2022-11-17T02:52:25.378Z,10.70
2022-11-17T02:54:53.868Z,10.58
2022-11-17T02:57:32.516Z,10.80
2022-11-17T03:00:07.113Z,10.71
2022-11-17T03:03:01.236Z,11.01
2022-11-17T03:05:41.082Z,10.91
2022-11-17T03:08:30.059Z,11.08
2022-11-17T03:11:03.996Z,10.84
2022-11-17T03:13:44.915Z,10.93
2022-11-17T03:16:26.686Z,10.91
2022-11-17T03:19:07.575Z,10.30
2022-11-17T03:21:42.791Z,10.64
2022-11-17T03:24:17.670Z,10.50
2022-11-17T03:26:53.166Z,10.72
2022-11-17T03:29:26.777Z,10.67
2022-11-17T03:32:03.371Z,10.25
2022-11-17T03:34:37.029Z,10.31
2022-11-17T03:37:09.999Z,10.52
2022-11-17T03:39:42.736Z,10.71
2022-11-17T03:42:16.848Z,10.50
2022-11-17T03:44:51.948Z,11.06
2022-11-17T03:47:25.956Z,10.90
2022-11-17T03:50:02.653Z,10.97
2022-11-17T03:52:31.929Z,10.87
2022-11-17T03:55:00.669Z,10.82
2022-11-17T04:22:14.021Z,10.47
2022-11-17T04:24:42.237Z,10.74
2022-11-17T04:47:44.948Z,10.83
2022-11-17T04:50:13.272Z,10.69
2022-11-17T04:52:41.671Z,10.95
2022-11-17T04:55:10.920Z,11.06
2022-11-17T04:57:39.274Z,10.89
2022-11-17T05:00:11.017Z,11.18
2022-11-17T05:02:39.393Z,11.15
2022-11-17T05:05:08.926Z,11.29
2022-11-17T05:07:37.305Z,10.82
2022-11-17T05:10:07.039Z,10.75
2022-11-17T05:12:52.869Z,10.71
2022-11-17T05:15:43.096Z,10.93
2022-11-17T05:18:10.431Z,11.26
2022-11-17T05:20:38.831Z,11.33
2022-11-17T05:23:23.645Z,10.95
2022-11-17T05:25:55.097Z,10.71
2022-11-17T05:28:23.462Z,11.06
2022-11-17T05:30:53.158Z,10.37
2022-11-17T05:33:21.513Z,10.53
2022-11-17T05:35:49.866Z,10.80
2022-11-17T05:38:18.271Z,10.85
2022-11-17T05:40:46.651Z,10.71
2022-11-17T05:43:15.020Z,10.86
2022-11-17T05:45:43.396Z,10.97
2022-11-17T05:48:13.288Z,10.73
2022-11-17T05:50:41.691Z,10.68
2022-11-17T05:53:10.319Z,10.96
2022-11-17T05:55:38.683Z,10.86
2022-11-17T05:58:13.555Z,10.44
2022-11-17T06:00:43.135Z,10.71
2022-11-17T06:03:17.962Z,10.37
2022-11-17T06:05:46.414Z,10.35
2022-11-17T06:08:15.199Z,10.26
2022-11-17T06:10:44.035Z,10.56
2022-11-17T06:13:12.384Z,10.64
2022-11-17T06:15:41.179Z,10.77
2022-11-17T06:18:15.918Z,10.49
2022-11-17T06:20:48.538Z,10.31
2022-11-17T06:23:19.612Z,10.48
2022-11-17T06:25:48.945Z,10.60
2022-11-17T06:28:20.278Z,10.52
2022-11-17T06:30:50.037Z,10.52
2022-11-17T06:33:20.524Z,10.86
2022-11-17T06:35:50.901Z,10.77
2022-11-17T06:38:19.512Z,10.90
2022-11-17T06:40:48.142Z,10.53
2022-11-17T06:43:16.986Z,11.08
2022-11-17T06:45:47.430Z,11.04
2022-11-17T06:48:18.199Z,10.81
2022-11-17T06:50:50.495Z,10.74
2022-11-17T06:53:19.167Z,10.70
2022-11-17T06:55:50.301Z,11.09
2022-11-17T06:58:18.938Z,10.88
2022-11-17T07:00:47.594Z,11.08
2022-11-17T07:03:16.237Z,11.25
2022-11-17T07:05:44.842Z,11.04
2022-11-17T07:08:14.626Z,10.91
2022-11-17T07:10:49.010Z,10.92
2022-11-17T07:13:17.971Z,11.10
2022-11-17T07:15:46.332Z,10.94
2022-11-17T07:18:14.697Z,11.17
2022-11-17T07:20:43.039Z,11.29
2022-11-17T07:23:11.381Z,11.17
2022-11-17T07:25:41.242Z,11.18
2022-11-17T07:28:09.717Z,11.28
2022-11-17T07:30:38.681Z,11.77
2022-11-17T07:33:07.103Z,12.13
2022-11-17T07:35:37.508Z,11.48
2022-11-17T07:38:05.873Z,11.23
2022-11-17T07:40:34.233Z,11.21
2022-11-17T07:43:03.926Z,11.29
2022-11-17T07:45:32.558Z,11.20
2022-11-17T07:48:03.259Z,11.53
2022-11-17T07:50:32.183Z,11.02
2022-11-17T07:53:00.891Z,11.29
2022-11-17T07:55:29.320Z,11.26
2022-11-17T07:57:59.560Z,11.06
2022-11-17T08:00:31.823Z,11.33
2022-11-17T08:03:03.639Z,11.68
2022-11-17T08:05:33.007Z,11.54
2022-11-17T08:08:03.772Z,11.11
2022-11-17T08:10:32.311Z,11.33
2022-11-17T08:13:01.861Z,11.22
2022-11-17T08:15:32.366Z,12.04
2022-11-17T08:18:02.126Z,11.77
2022-11-17T08:20:31.025Z,11.62
2022-11-17T08:22:59.839Z,11.77
2022-11-17T08:25:29.193Z,11.84
2022-11-17T08:27:58.708Z,11.88
2022-11-17T08:30:33.604Z,12.06
2022-11-17T08:33:02.760Z,11.67
2022-11-17T08:35:37.330Z,11.88
2022-11-17T08:38:06.891Z,11.65
2022-11-17T08:40:35.863Z,11.44
2022-11-17T08:43:05.147Z,11.35
2022-11-17T08:45:35.005Z,11.32
2022-11-17T08:48:04.100Z,11.22
2022-11-17T08:50:32.476Z,11.06
2022-11-17T08:53:00.848Z,11.35
2022-11-17T08:55:29.296Z,11.77
2022-11-17T08:57:57.756Z,11.91
2022-11-17T09:00:26.367Z,12.36
2022-11-17T09:02:56.021Z,12.23
2022-11-17T09:05:25.102Z,12.45
2022-11-17T09:07:53.712Z,12.23
2022-11-17T09:10:22.244Z,11.98
2022-11-17T09:12:50.564Z,12.64
2022-11-17T09:15:19.113Z,12.28
2022-11-17T09:17:48.250Z,12.17
2022-11-17T09:20:19.145Z,11.93
2022-11-17T09:22:47.769Z,11.91
2022-11-17T09:25:16.926Z,11.46
2022-11-17T09:27:45.272Z,11.81
2022-11-17T09:30:14.473Z,12.19
2022-11-17T09:32:42.834Z,11.95
2022-11-17T09:35:11.346Z,11.95
2022-11-17T09:37:41.060Z,11.89
2022-11-17T09:40:16.111Z,11.90
2022-11-17T09:42:44.938Z,12.41
2022-11-17T09:45:20.715Z,11.83
2022-11-17T09:48:18.441Z,11.77
2022-11-17T09:50:49.975Z,11.95
2022-11-17T09:53:26.779Z,12.48
2022-11-17T09:55:59.233Z,12.59
2022-11-17T09:58:36.055Z,12.15
2022-11-17T10:01:05.429Z,12.32
2022-11-17T10:03:41.807Z,12.00
2022-11-17T10:06:18.155Z,12.34
2022-11-17T10:09:00.232Z,12.23
2022-11-17T10:11:35.216Z,12.42
2022-11-17T10:14:13.156Z,12.66
2022-11-17T10:16:45.755Z,12.59
2022-11-17T10:19:19.080Z,12.47
2022-11-17T10:21:52.933Z,12.34
2022-11-17T10:24:42.152Z,12.32
2022-11-17T10:27:22.286Z,12.81
2022-11-17T10:30:02.161Z,12.18
2022-11-17T10:32:33.140Z,12.49
2022-11-17T10:35:17.135Z,12.74
2022-11-17T10:37:53.806Z,12.91
2022-11-17T10:40:26.320Z,12.47
2022-11-17T10:43:05.833Z,12.31
2022-11-17T10:45:35.268Z,12.22
2022-11-17T10:48:18.743Z,12.67
2022-11-17T10:50:55.010Z,12.47
2022-11-17T10:53:44.519Z,12.66
2022-11-17T10:56:21.616Z,12.80
2022-11-17T10:59:02.163Z,12.51
2022-11-17T11:01:33.699Z,12.67
2022-11-17T11:04:03.034Z,12.62
2022-11-17T11:06:34.346Z,12.49
2022-11-17T11:09:08.164Z,12.57
2022-11-17T11:11:45.634Z,12.76
2022-11-17T11:14:19.407Z,12.92
2022-11-17T11:16:50.773Z,12.53
2022-11-17T11:19:21.375Z,12.55
2022-11-17T11:22:24.655Z,12.85
2022-11-17T11:25:04.354Z,12.77
2022-11-17T11:27:59.332Z,12.50
2022-11-17T11:30:28.821Z,12.27
2022-11-17T11:33:15.996Z,12.60
2022-11-17T11:36:03.495Z,12.80
2022-11-17T11:38:53.685Z,12.55
2022-11-17T11:41:50.162Z,12.62
2022-11-17T11:44:42.231Z,12.43
2022-11-17T11:47:25.393Z,12.75
2022-11-17T11:49:59.040Z,12.80
2022-11-17T11:52:32.868Z,12.30
2022-11-17T11:55:03.987Z,12.74
2022-11-17T11:57:38.753Z,12.48
2022-11-17T12:00:16.105Z,12.58
2022-11-17T12:02:54.609Z,13.00
2022-11-17T12:05:30.484Z,12.78
2022-11-17T12:08:10.761Z,12.60
2022-11-17T12:10:47.284Z,12.89
2022-11-17T12:13:17.960Z,12.57
2022-11-17T12:15:47.747Z,12.48
2022-11-17T12:18:33.440Z,12.18
2022-11-17T12:21:07.064Z,12.36
2022-11-17T12:24:10.708Z,12.69
2022-11-17T12:26:39.684Z,12.36
2022-11-17T12:29:31.998Z,12.29
2022-11-17T12:32:03.815Z,12.09
2022-11-17T12:34:35.879Z,13.14
2022-11-17T12:37:20.244Z,13.07
2022-11-17T12:40:09.789Z,12.81
2022-11-17T12:42:58.640Z,12.93
2022-11-17T12:45:27.020Z,12.98
2022-11-17T12:48:26.462Z,12.75
2022-11-17T12:51:01.835Z,12.72
2022-11-17T12:53:53.341Z,12.89
2022-11-17T12:56:59.317Z,13.13
2022-11-17T13:00:05.392Z,13.30
2022-11-17T13:02:59.805Z,13.51
2022-11-17T13:05:30.254Z,13.08
2022-11-17T13:08:24.902Z,13.43
2022-11-17T13:11:03.676Z,12.59
2022-11-17T13:13:34.020Z,12.88
2022-11-17T13:16:06.069Z,12.89
2022-11-17T13:18:40.387Z,12.93
2022-11-17T13:21:29.936Z,13.16
2022-11-17T13:24:00.318Z,13.11
2022-11-17T13:26:35.814Z,13.38
2022-11-17T13:29:07.011Z,13.10
2022-11-17T13:31:35.915Z,12.64
2022-11-17T13:34:08.790Z,13.26
2022-11-17T13:36:37.469Z,13.41
2022-11-17T13:39:05.804Z,13.11
2022-11-17T13:41:39.550Z,13.36
2022-11-17T13:44:14.637Z,13.82
2022-11-17T13:46:43.689Z,13.32
2022-11-17T13:49:38.011Z,12.90
2022-11-17T13:52:15.312Z,12.95
2022-11-17T13:54:45.279Z,12.96
2022-11-17T13:57:23.864Z,13.49
2022-11-17T13:59:52.578Z,14.07
2022-11-17T14:02:26.956Z,13.85
2022-11-17T14:05:26.681Z,13.46
2022-11-17T14:07:57.070Z,13.65
2022-11-17T14:10:31.670Z,13.67
2022-11-17T14:13:23.743Z,13.84
2022-11-17T14:15:58.356Z,13.59
2022-11-17T14:18:37.382Z,13.09
2022-11-17T14:21:10.433Z,13.14
2022-11-17T14:23:39.153Z,13.42
2022-11-17T14:26:14.724Z,13.20
2022-11-17T14:28:43.787Z,13.05
2022-11-17T14:31:14.148Z,13.34
2022-11-17T14:33:42.921Z,13.78
2022-11-17T14:36:16.497Z,14.04
2022-11-17T14:38:45.660Z,13.60
2022-11-17T14:41:16.305Z,13.28
2022-11-17T14:43:44.892Z,13.64
2022-11-17T14:46:24.155Z,13.22
2022-11-17T14:48:53.549Z,12.82
2022-11-17T14:51:23.820Z,13.20
2022-11-17T14:53:52.154Z,13.58
2022-11-17T14:56:23.655Z,13.35
2022-11-17T14:58:56.592Z,13.62
2022-11-17T15:01:28.812Z,13.27
2022-11-17T15:03:58.949Z,12.77
2022-11-17T15:06:29.311Z,13.24
2022-11-17T15:09:00.811Z,13.06
2022-11-17T15:11:36.583Z,12.77
2022-11-17T15:14:08.229Z,13.14
2022-11-17T15:16:36.838Z,12.87
2022-11-17T15:19:06.797Z,13.58
2022-11-17T15:21:36.801Z,13.24
2022-11-17T15:24:06.450Z,13.14
2022-11-17T15:26:35.805Z,13.02
2022-11-17T15:29:04.438Z,13.71
2022-11-17T15:31:33.094Z,13.30
2022-11-17T15:34:03.138Z,13.41
2022-11-17T15:36:31.914Z,13.75
2022-11-17T15:39:02.008Z,13.48
2022-11-17T15:41:32.954Z,13.76
2022-11-17T15:44:01.931Z,13.53
2022-11-17T15:46:30.558Z,13.73
2022-11-17T15:48:59.218Z,13.89
2022-11-17T15:51:29.163Z,13.91
2022-11-17T15:54:00.309Z,13.93
2022-11-17T15:56:31.762Z,13.62
2022-11-17T15:59:03.289Z,13.43
2022-11-17T16:01:33.786Z,13.79
2022-11-17T16:04:04.711Z,14.17
2022-11-17T16:06:35.388Z,14.21
2022-11-17T16:09:04.425Z,13.81
2022-11-17T16:11:34.387Z,13.94
2022-11-17T16:14:03.519Z,14.00
2022-11-17T16:16:35.090Z,14.18
2022-11-17T16:19:04.041Z,14.11
2022-11-17T16:21:32.776Z,13.74
2022-11-17T16:24:02.416Z,14.03
2022-11-17T16:26:31.649Z,14.16
2022-11-17T16:29:04.200Z,14.13
2022-11-17T16:31:34.573Z,13.65
2022-11-17T16:34:05.291Z,13.74
2022-11-17T16:36:37.113Z,13.98
2022-11-17T16:39:07.551Z,14.28
2022-11-17T16:41:38.289Z,14.04
2022-11-17T16:44:11.848Z,13.62
2022-11-17T16:46:43.816Z,13.38
2022-11-17T16:49:14.860Z,13.87
2022-11-17T16:51:49.282Z,13.44
2022-11-17T16:54:18.643Z,13.81
2022-11-17T16:56:47.222Z,13.95
2022-11-17T16:59:17.619Z,13.68
2022-11-17T17:01:46.466Z,13.35
2022-11-17T17:04:15.846Z,13.52
2022-11-17T17:06:46.337Z,13.53
2022-11-17T17:09:16.506Z,13.66
2022-11-17T17:11:45.828Z,13.42
2022-11-17T17:14:17.187Z,13.14
2022-11-17T17:16:45.950Z,12.84
2022-11-17T17:19:16.208Z,13.83
2022-11-17T17:21:46.035Z,13.90
2022-11-17T17:24:15.383Z,14.07
2022-11-17T17:26:43.960Z,13.81
2022-11-17T17:29:12.947Z,13.96
2022-11-17T17:31:43.558Z,14.42
2022-11-17T17:34:15.128Z,14.51
2022-11-17T17:36:43.923Z,14.52
2022-11-17T17:39:16.353Z,14.32
2022-11-17T17:41:46.132Z,13.49
2022-11-17T17:44:18.059Z,13.44
2022-11-17T17:46:48.763Z,13.38
2022-11-17T17:49:18.931Z,13.34
2022-11-17T17:51:47.833Z,13.40
2022-11-17T17:54:18.830Z,13.40
2022-11-17T17:56:48.461Z,12.53
2022-11-17T17:59:17.734Z,12.46
2022-11-17T18:01:48.195Z,12.53
2022-11-17T18:04:17.256Z,12.64
2022-11-17T18:06:48.259Z,12.70
2022-11-17T18:09:19.417Z,12.88
2022-11-17T18:11:50.246Z,12.43
2022-11-17T18:14:24.352Z,13.22
2022-11-17T18:16:55.937Z,12.88
2022-11-17T18:19:29.757Z,13.26
2022-11-17T18:22:01.345Z,13.31
2022-11-17T18:24:29.978Z,12.53
2022-11-17T18:26:58.610Z,13.34
2022-11-17T18:29:27.298Z,13.34
2022-11-17T18:31:57.286Z,14.11
2022-11-17T18:34:26.561Z,14.06
2022-11-17T18:36:56.805Z,14.41
2022-11-17T18:39:27.409Z,14.20
2022-11-17T18:41:56.204Z,14.01
2022-11-17T18:44:24.575Z,13.62
2022-11-17T18:46:54.267Z,13.43
2022-11-17T18:49:26.768Z,13.34
2022-11-17T18:51:55.414Z,12.58
2022-11-17T18:54:24.004Z,13.02
2022-11-17T18:56:52.626Z,13.41
2022-11-17T18:59:21.181Z,13.77
2022-11-17T19:01:50.151Z,13.81
2022-11-17T19:04:18.717Z,13.91
2022-11-17T19:06:48.481Z,13.49
2022-11-17T19:09:18.061Z,12.85
2022-11-17T19:11:46.948Z,13.18
2022-11-17T19:14:15.551Z,13.68
2022-11-17T19:16:45.314Z,13.51
2022-11-17T19:19:15.117Z,13.61
2022-11-17T19:21:44.705Z,13.79
2022-11-17T19:24:15.588Z,13.63
2022-11-17T19:26:43.970Z,13.75
2022-11-17T19:29:17.013Z,13.82
2022-11-17T19:31:46.738Z,13.99
2022-11-17T19:34:15.550Z,13.95
2022-11-17T19:36:44.627Z,14.00
2022-11-17T19:39:15.381Z,13.24
2022-11-17T19:41:45.267Z,13.92
2022-11-17T19:44:13.826Z,14.26
2022-11-17T19:46:43.348Z,14.52
2022-11-17T19:49:13.339Z,14.31
2022-11-17T19:51:42.328Z,14.35
2022-11-17T19:54:13.353Z,14.55
2022-11-17T19:56:43.267Z,14.25
2022-11-17T19:59:15.987Z,13.28
2022-11-17T20:01:45.923Z,13.40
2022-11-17T20:04:14.371Z,13.56
2022-11-17T20:06:42.785Z,13.39
2022-11-17T20:09:14.215Z,13.15
2022-11-17T20:11:44.262Z,13.26
2022-11-17T20:14:14.418Z,13.63
2022-11-17T20:16:42.897Z,13.63
2022-11-17T20:19:12.259Z,14.01
2022-11-17T20:21:40.595Z,13.91
2022-11-17T20:24:09.770Z,14.17
2022-11-17T20:26:40.643Z,13.99
2022-11-17T20:29:10.635Z,13.59
2022-11-17T20:31:39.200Z,13.92
2022-11-17T20:34:07.672Z,14.07
2022-11-17T20:36:36.331Z,13.64
2022-11-17T20:39:07.594Z,13.90
2022-11-17T20:41:36.397Z,14.18
2022-11-17T20:44:05.399Z,14.27
2022-11-17T20:46:35.083Z,13.95
2022-11-17T20:49:03.423Z,14.01
2022-11-17T20:51:32.273Z,14.05
2022-11-17T20:54:00.651Z,14.14
2022-11-17T20:56:28.979Z,14.21
2022-11-17T20:58:57.487Z,14.19
2022-11-17T21:01:25.961Z,14.26
2022-11-17T21:03:55.794Z,14.25
2022-11-17T21:06:24.305Z,14.26
2022-11-17T21:08:53.375Z,14.39
2022-11-17T21:11:42.249Z,14.33
2022-11-17T21:14:12.637Z,14.33
2022-11-17T21:16:44.448Z,14.20
2022-11-17T21:19:15.653Z,14.12
2022-11-17T21:21:44.467Z,14.16
2022-11-17T21:24:13.873Z,14.32
2022-11-17T21:26:42.977Z,14.23
2022-11-17T21:29:11.403Z,14.36
2022-11-17T21:31:40.159Z,14.20
2022-11-17T21:34:14.661Z,14.12
2022-11-17T21:36:44.396Z,14.21
2022-11-17T21:39:18.455Z,13.30
2022-11-17T21:41:47.229Z,12.86
2022-11-17T21:44:15.621Z,13.38
2022-11-17T21:46:44.047Z,13.56
2022-11-17T21:49:12.395Z,13.71
2022-11-17T21:51:40.724Z,13.72
2022-11-17T21:54:11.375Z,13.82
2022-11-17T21:56:40.722Z,13.86
2022-11-17T21:59:14.066Z,13.17
2022-11-17T22:01:42.585Z,13.15
2022-11-17T22:04:13.270Z,13.39
2022-11-17T22:06:41.613Z,13.54
2022-11-17T22:09:11.420Z,13.66
2022-11-17T22:11:40.514Z,13.80
2022-11-17T22:14:11.842Z,13.87
2022-11-17T22:16:41.896Z,13.91
2022-11-17T22:19:11.255Z,13.40
2022-11-17T22:21:41.532Z,13.73
2022-11-17T22:24:13.387Z,13.67
2022-11-17T22:26:44.156Z,13.37
2022-11-17T22:29:16.025Z,13.53
2022-11-17T22:31:45.266Z,13.59
2022-11-17T22:34:14.377Z,13.63
2022-11-17T22:36:43.138Z,13.24
2022-11-17T22:39:13.269Z,13.48
2022-11-17T22:41:41.947Z,13.61
2022-11-17T22:44:14.645Z,13.29
2022-11-17T22:46:44.016Z,13.48
2022-11-17T22:49:12.698Z,12.94
2022-11-17T22:51:58.322Z,12.81
2022-11-17T22:54:28.313Z,13.21
2022-11-17T22:56:56.702Z,13.32
2022-11-17T22:59:25.538Z,13.11
2022-11-17T23:01:54.077Z,13.41
2022-11-17T23:04:23.508Z,13.60
2022-11-17T23:06:51.964Z,13.66
2022-11-17T23:09:20.382Z,13.63
2022-11-17T23:11:50.508Z,13.76
2022-11-17T23:14:18.886Z,13.38
2022-11-17T23:16:47.219Z,13.63
2022-11-17T23:19:16.406Z,13.56
2022-11-17T23:21:44.961Z,13.98
2022-11-17T23:24:14.712Z,14.21
2022-11-17T23:26:44.123Z,14.27
2022-11-17T23:29:14.226Z,13.78
2022-11-17T23:31:42.859Z,13.87
2022-11-17T23:34:12.120Z,13.98
2022-11-17T23:36:40.701Z,13.99
2022-11-17T23:39:09.345Z,13.27
2022-11-17T23:41:37.712Z,13.59
2022-11-17T23:44:06.670Z,13.61
2022-11-17T23:46:36.403Z,13.70
2022-11-17T23:49:05.122Z,13.87
2022-11-17T23:51:33.562Z,13.70
2022-11-17T23:54:02.913Z,13.82
2022-11-17T23:56:34.538Z,13.94
2022-11-17T23:59:03.619Z,14.00
